sensor_id;sensor_type;location;lat;lon;timestamp;temperature;humidity
12477;DHT22;6303;51.504;6.300;2022-10-16T00:00:32;23.00;66.60
12477;DHT22;6303;51.504;6.300;2022-10-16T00:03:00;23.00;66.70
12477;DHT22;6303;51.504;6.300;2022-10-16T00:05:27;23.10;66.80
12477;DHT22;6303;51.504;6.300;2022-10-16T00:07:54;23.00;66.60
12477;DHT22;6303;51.504;6.300;2022-10-16T00:10:21;23.10;66.60
12477;DHT22;6303;51.504;6.300;2022-10-16T00:12:48;23.00;66.60
12477;DHT22;6303;51.504;6.300;2022-10-16T00:15:16;23.00;66.50
12477;DHT22;6303;51.504;6.300;2022-10-16T00:17:43;23.00;66.60
12477;DHT22;6303;51.504;6.300;2022-10-16T00:20:11;23.00;66.60
12477;DHT22;6303;51.504;6.300;2022-10-16T00:22:38;21.80;65.80
12477;DHT22;6303;51.504;6.300;2022-10-16T00:25:06;23.00;66.50
12477;DHT22;6303;51.504;6.300;2022-10-16T00:27:33;23.00;66.40
12477;DHT22;6303;51.504;6.300;2022-10-16T00:30:00;23.00;66.40
12477;DHT22;6303;51.504;6.300;2022-10-16T00:32:28;23.00;66.40
12477;DHT22;6303;51.504;6.300;2022-10-16T00:34:55;23.00;66.50
12477;DHT22;6303;51.504;6.300;2022-10-16T00:37:23;23.00;66.40
12477;DHT22;6303;51.504;6.300;2022-10-16T00:39:50;23.00;66.50
12477;DHT22;6303;51.504;6.300;2022-10-16T00:42:19;23.00;66.40
12477;DHT22;6303;51.504;6.300;2022-10-16T00:44:49;23.00;66.40
12477;DHT22;6303;51.504;6.300;2022-10-16T00:47:21;23.00;66.30
12477;DHT22;6303;51.504;6.300;2022-10-16T00:49:51;23.00;66.30
12477;DHT22;6303;51.504;6.300;2022-10-16T00:52:20;23.00;66.30
12477;DHT22;6303;51.504;6.300;2022-10-16T00:54:49;23.00;66.40
12477;DHT22;6303;51.504;6.300;2022-10-16T00:57:17;23.00;66.30
12477;DHT22;6303;51.504;6.300;2022-10-16T00:59:44;23.00;66.40
12477;DHT22;6303;51.504;6.300;2022-10-16T01:02:15;23.00;66.40
12477;DHT22;6303;51.504;6.300;2022-10-16T01:04:46;23.00;66.40
12477;DHT22;6303;51.504;6.300;2022-10-16T01:07:19;23.00;66.40
12477;DHT22;6303;51.504;6.300;2022-10-16T01:10:01;25.10;67.60
12477;DHT22;6303;51.504;6.300;2022-10-16T01:12:36;23.00;66.50
12477;DHT22;6303;51.504;6.300;2022-10-16T01:15:10;23.00;66.80
12477;DHT22;6303;51.504;6.300;2022-10-16T01:17:43;23.00;67.00
12477;DHT22;6303;51.504;6.300;2022-10-16T01:20:22;23.00;67.00
12477;DHT22;6303;51.504;6.300;2022-10-16T01:23:15;23.00;67.20
12477;DHT22;6303;51.504;6.300;2022-10-16T01:25:59;23.00;67.10
12477;DHT22;6303;51.504;6.300;2022-10-16T01:28:34;23.00;67.20
12477;DHT22;6303;51.504;6.300;2022-10-16T01:31:03;23.00;67.20
12477;DHT22;6303;51.504;6.300;2022-10-16T01:33:35;23.00;67.20
12477;DHT22;6303;51.504;6.300;2022-10-16T01:36:09;23.00;67.20
12477;DHT22;6303;51.504;6.300;2022-10-16T01:38:38;22.40;66.80
12477;DHT22;6303;51.504;6.300;2022-10-16T01:41:09;23.00;67.20
12477;DHT22;6303;51.504;6.300;2022-10-16T01:43:42;23.00;67.10
12477;DHT22;6303;51.504;6.300;2022-10-16T01:46:10;23.00;67.10
12477;DHT22;6303;51.504;6.300;2022-10-16T01:48:39;23.00;67.00
12477;DHT22;6303;51.504;6.300;2022-10-16T01:51:10;23.00;67.10
12477;DHT22;6303;51.504;6.300;2022-10-16T01:53:39;23.00;67.10
12477;DHT22;6303;51.504;6.300;2022-10-16T01:56:09;23.00;67.00
12477;DHT22;6303;51.504;6.300;2022-10-16T01:58:42;23.00;67.10
12477;DHT22;6303;51.504;6.300;2022-10-16T02:01:13;23.00;67.10
12477;DHT22;6303;51.504;6.300;2022-10-16T02:03:42;23.00;67.10
12477;DHT22;6303;51.504;6.300;2022-10-16T02:06:11;23.00;67.10
12477;DHT22;6303;51.504;6.300;2022-10-16T02:08:39;23.00;67.20
12477;DHT22;6303;51.504;6.300;2022-10-16T02:11:09;22.90;67.10
12477;DHT22;6303;51.504;6.300;2022-10-16T02:13:41;23.00;67.20
12477;DHT22;6303;51.504;6.300;2022-10-16T02:16:11;22.90;67.20
12477;DHT22;6303;51.504;6.300;2022-10-16T02:18:39;22.90;67.20
12477;DHT22;6303;51.504;6.300;2022-10-16T02:21:13;23.50;67.50
12477;DHT22;6303;51.504;6.300;2022-10-16T02:23:45;22.90;67.10
12477;DHT22;6303;51.504;6.300;2022-10-16T02:26:20;22.90;67.20
12477;DHT22;6303;51.504;6.300;2022-10-16T02:28:55;22.90;67.10
12477;DHT22;6303;51.504;6.300;2022-10-16T02:31:28;22.90;68.00
12477;DHT22;6303;51.504;6.300;2022-10-16T02:33:58;22.90;67.30
12477;DHT22;6303;51.504;6.300;2022-10-16T02:36:27;22.90;67.20
12477;DHT22;6303;51.504;6.300;2022-10-16T02:38:54;22.90;67.20
12477;DHT22;6303;51.504;6.300;2022-10-16T02:41:23;22.90;67.20
12477;DHT22;6303;51.504;6.300;2022-10-16T02:43:51;22.90;67.30
12477;DHT22;6303;51.504;6.300;2022-10-16T02:46:20;22.90;67.40
12477;DHT22;6303;51.504;6.300;2022-10-16T02:48:48;22.90;67.30
12477;DHT22;6303;51.504;6.300;2022-10-16T02:51:15;22.90;67.20
12477;DHT22;6303;51.504;6.300;2022-10-16T02:53:42;22.90;67.20
12477;DHT22;6303;51.504;6.300;2022-10-16T02:56:09;22.90;67.30
12477;DHT22;6303;51.504;6.300;2022-10-16T02:58:36;22.90;67.40
12477;DHT22;6303;51.504;6.300;2022-10-16T03:01:04;22.90;67.30
12477;DHT22;6303;51.504;6.300;2022-10-16T03:03:31;22.90;67.20
12477;DHT22;6303;51.504;6.300;2022-10-16T03:05:58;22.90;67.20
12477;DHT22;6303;51.504;6.300;2022-10-16T03:08:26;22.90;67.20
12477;DHT22;6303;51.504;6.300;2022-10-16T03:10:53;22.90;67.20
12477;DHT22;6303;51.504;6.300;2022-10-16T03:13:20;22.90;68.00
12477;DHT22;6303;51.504;6.300;2022-10-16T03:15:47;22.90;67.30
12477;DHT22;6303;51.504;6.300;2022-10-16T03:18:16;22.90;67.20
12477;DHT22;6303;51.504;6.300;2022-10-16T03:20:43;22.90;67.10
12477;DHT22;6303;51.504;6.300;2022-10-16T03:23:10;22.90;67.20
12477;DHT22;6303;51.504;6.300;2022-10-16T03:25:37;22.90;67.20
12477;DHT22;6303;51.504;6.300;2022-10-16T03:28:04;22.80;67.10
12477;DHT22;6303;51.504;6.300;2022-10-16T03:30:31;22.80;67.00
12477;DHT22;6303;51.504;6.300;2022-10-16T03:32:58;22.80;67.00
12477;DHT22;6303;51.504;6.300;2022-10-16T03:35:27;22.80;67.00
12477;DHT22;6303;51.504;6.300;2022-10-16T03:37:54;22.80;67.00
12477;DHT22;6303;51.504;6.300;2022-10-16T03:40:22;22.90;67.10
12477;DHT22;6303;51.504;6.300;2022-10-16T03:42:49;22.90;67.00
12477;DHT22;6303;51.504;6.300;2022-10-16T03:45:16;22.90;67.00
12477;DHT22;6303;51.504;6.300;2022-10-16T03:47:43;22.80;67.10
12477;DHT22;6303;51.504;6.300;2022-10-16T03:50:10;22.80;67.10
12477;DHT22;6303;51.504;6.300;2022-10-16T03:52:38;22.80;66.90
12477;DHT22;6303;51.504;6.300;2022-10-16T03:55:06;22.80;66.80
12477;DHT22;6303;51.504;6.300;2022-10-16T03:57:34;22.80;66.70
12477;DHT22;6303;51.504;6.300;2022-10-16T04:00:01;22.90;66.70
12477;DHT22;6303;51.504;6.300;2022-10-16T04:02:37;22.90;66.70
12477;DHT22;6303;51.504;6.300;2022-10-16T04:05:05;22.80;66.70
12477;DHT22;6303;51.504;6.300;2022-10-16T04:07:32;22.80;66.70
12477;DHT22;6303;51.504;6.300;2022-10-16T04:10:00;22.80;66.60
12477;DHT22;6303;51.504;6.300;2022-10-16T04:12:27;22.80;66.70
12477;DHT22;6303;51.504;6.300;2022-10-16T04:14:54;22.80;66.70
12477;DHT22;6303;51.504;6.300;2022-10-16T04:17:21;22.80;66.80
12477;DHT22;6303;51.504;6.300;2022-10-16T04:19:48;22.80;66.80
12477;DHT22;6303;51.504;6.300;2022-10-16T04:22:15;22.80;66.80
12477;DHT22;6303;51.504;6.300;2022-10-16T04:24:42;22.80;66.90
12477;DHT22;6303;51.504;6.300;2022-10-16T04:27:11;22.80;66.90
12477;DHT22;6303;51.504;6.300;2022-10-16T04:29:38;22.80;66.90
12477;DHT22;6303;51.504;6.300;2022-10-16T04:32:05;22.80;66.90
12477;DHT22;6303;51.504;6.300;2022-10-16T04:34:32;22.80;67.00
12477;DHT22;6303;51.504;6.300;2022-10-16T04:36:59;22.80;66.90
12477;DHT22;6303;51.504;6.300;2022-10-16T04:39:26;22.80;67.00
12477;DHT22;6303;51.504;6.300;2022-10-16T04:41:53;22.80;67.00
12477;DHT22;6303;51.504;6.300;2022-10-16T04:44:21;22.80;67.00
12477;DHT22;6303;51.504;6.300;2022-10-16T04:46:50;22.80;66.90
12477;DHT22;6303;51.504;6.300;2022-10-16T04:49:17;25.40;68.60
12477;DHT22;6303;51.504;6.300;2022-10-16T04:51:44;22.80;67.00
12477;DHT22;6303;51.504;6.300;2022-10-16T04:54:11;22.80;67.00
12477;DHT22;6303;51.504;6.300;2022-10-16T04:56:38;22.80;66.90
12477;DHT22;6303;51.504;6.300;2022-10-16T04:59:12;22.80;66.80
12477;DHT22;6303;51.504;6.300;2022-10-16T05:01:40;22.70;66.80
12477;DHT22;6303;51.504;6.300;2022-10-16T05:04:08;22.80;66.80
12477;DHT22;6303;51.504;6.300;2022-10-16T05:06:35;22.80;66.80
12477;DHT22;6303;51.504;6.300;2022-10-16T05:09:03;22.80;66.80
12477;DHT22;6303;51.504;6.300;2022-10-16T05:11:30;22.70;66.80
12477;DHT22;6303;51.504;6.300;2022-10-16T05:13:57;22.80;66.90
12477;DHT22;6303;51.504;6.300;2022-10-16T05:16:24;22.70;66.90
12477;DHT22;6303;51.504;6.300;2022-10-16T05:18:53;22.80;66.90
12477;DHT22;6303;51.504;6.300;2022-10-16T05:21:20;22.80;67.60
12477;DHT22;6303;51.504;6.300;2022-10-16T05:23:47;22.80;67.30
12477;DHT22;6303;51.504;6.300;2022-10-16T05:26:14;22.70;66.80
12477;DHT22;6303;51.504;6.300;2022-10-16T05:28:41;22.70;66.80
12477;DHT22;6303;51.504;6.300;2022-10-16T05:31:09;22.70;66.70
12477;DHT22;6303;51.504;6.300;2022-10-16T05:33:36;22.70;66.80
12477;DHT22;6303;51.504;6.300;2022-10-16T05:36:06;22.80;66.70
12477;DHT22;6303;51.504;6.300;2022-10-16T05:38:34;22.70;66.80
12477;DHT22;6303;51.504;6.300;2022-10-16T05:41:02;22.80;66.90
12477;DHT22;6303;51.504;6.300;2022-10-16T05:43:30;20.60;65.50
12477;DHT22;6303;51.504;6.300;2022-10-16T05:45:58;22.70;67.60
12477;DHT22;6303;51.504;6.300;2022-10-16T05:48:26;22.70;66.80
12477;DHT22;6303;51.504;6.300;2022-10-16T05:50:57;22.70;66.90
12477;DHT22;6303;51.504;6.300;2022-10-16T05:53:27;22.70;66.90
12477;DHT22;6303;51.504;6.300;2022-10-16T05:55:54;22.70;66.80
12477;DHT22;6303;51.504;6.300;2022-10-16T05:58:22;22.80;66.80
12477;DHT22;6303;51.504;6.300;2022-10-16T06:00:53;22.80;66.90
12477;DHT22;6303;51.504;6.300;2022-10-16T06:03:21;22.80;67.00
12477;DHT22;6303;51.504;6.300;2022-10-16T06:05:48;22.80;67.10
12477;DHT22;6303;51.504;6.300;2022-10-16T06:08:15;22.80;67.10
12477;DHT22;6303;51.504;6.300;2022-10-16T06:10:44;22.70;67.00
12477;DHT22;6303;51.504;6.300;2022-10-16T06:13:12;22.70;67.10
12477;DHT22;6303;51.504;6.300;2022-10-16T06:15:40;22.70;67.20
12477;DHT22;6303;51.504;6.300;2022-10-16T06:18:08;25.50;68.90
12477;DHT22;6303;51.504;6.300;2022-10-16T06:20:35;22.70;67.20
12477;DHT22;6303;51.504;6.300;2022-10-16T06:23:03;22.70;67.30
12477;DHT22;6303;51.504;6.300;2022-10-16T06:25:33;22.70;67.10
12477;DHT22;6303;51.504;6.300;2022-10-16T06:28:02;22.70;67.10
12477;DHT22;6303;51.504;6.300;2022-10-16T06:30:29;22.70;67.00
12477;DHT22;6303;51.504;6.300;2022-10-16T06:32:56;22.80;67.00
12477;DHT22;6303;51.504;6.300;2022-10-16T06:35:23;22.80;66.90
12477;DHT22;6303;51.504;6.300;2022-10-16T06:37:50;22.80;67.60
12477;DHT22;6303;51.504;6.300;2022-10-16T06:40:19;22.80;66.70
12477;DHT22;6303;51.504;6.300;2022-10-16T06:42:46;22.80;66.70
12477;DHT22;6303;51.504;6.300;2022-10-16T06:45:14;22.80;66.70
12477;DHT22;6303;51.504;6.300;2022-10-16T06:47:41;22.80;66.70
12477;DHT22;6303;51.504;6.300;2022-10-16T06:50:08;22.80;66.70
12477;DHT22;6303;51.504;6.300;2022-10-16T06:52:35;22.80;66.60
12477;DHT22;6303;51.504;6.300;2022-10-16T06:55:03;22.80;66.60
12477;DHT22;6303;51.504;6.300;2022-10-16T06:57:30;22.90;66.40
12477;DHT22;6303;51.504;6.300;2022-10-16T06:59:58;22.90;66.20
12477;DHT22;6303;51.504;6.300;2022-10-16T07:02:26;22.90;66.80
12477;DHT22;6303;51.504;6.300;2022-10-16T07:04:53;22.90;66.00
12477;DHT22;6303;51.504;6.300;2022-10-16T07:07:22;22.90;65.90
12477;DHT22;6303;51.504;6.300;2022-10-16T07:09:50;22.90;65.90
12477;DHT22;6303;51.504;6.300;2022-10-16T07:12:17;23.00;65.90
12477;DHT22;6303;51.504;6.300;2022-10-16T07:14:45;23.10;65.50
12477;DHT22;6303;51.504;6.300;2022-10-16T07:17:12;23.30;65.00
12477;DHT22;6303;51.504;6.300;2022-10-16T07:19:40;23.40;64.60
12477;DHT22;6303;51.504;6.300;2022-10-16T07:22:07;23.50;64.10
12477;DHT22;6303;51.504;6.300;2022-10-16T07:24:35;23.60;64.00
12477;DHT22;6303;51.504;6.300;2022-10-16T07:27:02;23.70;63.80
12477;DHT22;6303;51.504;6.300;2022-10-16T07:29:29;23.80;64.00
12477;DHT22;6303;51.504;6.300;2022-10-16T07:31:56;23.90;64.40
12477;DHT22;6303;51.504;6.300;2022-10-16T07:34:23;23.90;64.50
12477;DHT22;6303;51.504;6.300;2022-10-16T07:36:51;24.10;64.00
12477;DHT22;6303;51.504;6.300;2022-10-16T07:39:18;24.10;63.80
12477;DHT22;6303;51.504;6.300;2022-10-16T07:41:45;24.20;64.10
12477;DHT22;6303;51.504;6.300;2022-10-16T07:44:12;24.20;64.40
12477;DHT22;6303;51.504;6.300;2022-10-16T07:46:39;24.30;64.30
12477;DHT22;6303;51.504;6.300;2022-10-16T07:49:06;24.30;64.20
12477;DHT22;6303;51.504;6.300;2022-10-16T07:51:33;24.40;64.00
12477;DHT22;6303;51.504;6.300;2022-10-16T07:54:02;24.40;63.70
12477;DHT22;6303;51.504;6.300;2022-10-16T07:56:30;22.60;62.40
12477;DHT22;6303;51.504;6.300;2022-10-16T07:58:57;24.50;63.50
12477;DHT22;6303;51.504;6.300;2022-10-16T08:01:24;24.60;63.50
12477;DHT22;6303;51.504;6.300;2022-10-16T08:03:52;24.60;63.10
12477;DHT22;6303;51.504;6.300;2022-10-16T08:06:21;24.60;61.80
12477;DHT22;6303;51.504;6.300;2022-10-16T08:08:48;24.70;62.50
12477;DHT22;6303;51.504;6.300;2022-10-16T08:11:16;24.70;62.00
12477;DHT22;6303;51.504;6.300;2022-10-16T08:13:43;24.80;62.00
12477;DHT22;6303;51.504;6.300;2022-10-16T08:16:10;24.80;61.70
12477;DHT22;6303;51.504;6.300;2022-10-16T08:18:39;24.80;61.60
12477;DHT22;6303;51.504;6.300;2022-10-16T08:21:07;24.80;61.50
12477;DHT22;6303;51.504;6.300;2022-10-16T08:23:36;24.90;61.50
12477;DHT22;6303;51.504;6.300;2022-10-16T08:26:04;24.90;61.40
12477;DHT22;6303;51.504;6.300;2022-10-16T08:28:33;24.90;61.10
12477;DHT22;6303;51.504;6.300;2022-10-16T08:31:08;25.00;60.90
12477;DHT22;6303;51.504;6.300;2022-10-16T08:33:35;25.00;60.70
12477;DHT22;6303;51.504;6.300;2022-10-16T08:36:04;25.00;60.70
12477;DHT22;6303;51.504;6.300;2022-10-16T08:38:31;25.00;60.70
12477;DHT22;6303;51.504;6.300;2022-10-16T08:41:15;25.10;60.60
12477;DHT22;6303;51.504;6.300;2022-10-16T08:44:00;25.10;60.50
12477;DHT22;6303;51.504;6.300;2022-10-16T08:46:40;25.10;60.40
12477;DHT22;6303;51.504;6.300;2022-10-16T08:49:12;25.20;60.30
12477;DHT22;6303;51.504;6.300;2022-10-16T08:51:40;25.20;60.20
12477;DHT22;6303;51.504;6.300;2022-10-16T08:54:21;25.20;60.10
12477;DHT22;6303;51.504;6.300;2022-10-16T08:56:49;25.20;60.10
12477;DHT22;6303;51.504;6.300;2022-10-16T08:59:18;25.20;60.10
12477;DHT22;6303;51.504;6.300;2022-10-16T09:01:47;25.20;59.80
12477;DHT22;6303;51.504;6.300;2022-10-16T09:04:40;25.20;59.70
12477;DHT22;6303;51.504;6.300;2022-10-16T09:07:12;25.20;59.60
12477;DHT22;6303;51.504;6.300;2022-10-16T09:09:58;25.20;59.40
12477;DHT22;6303;51.504;6.300;2022-10-16T09:12:32;25.30;59.30
12477;DHT22;6303;51.504;6.300;2022-10-16T09:15:15;25.30;59.20
12477;DHT22;6303;51.504;6.300;2022-10-16T09:17:50;25.30;59.20
12477;DHT22;6303;51.504;6.300;2022-10-16T09:20:30;25.30;59.20
12477;DHT22;6303;51.504;6.300;2022-10-16T09:23:10;25.30;59.00
12477;DHT22;6303;51.504;6.300;2022-10-16T09:25:40;25.40;59.10
12477;DHT22;6303;51.504;6.300;2022-10-16T09:28:08;25.40;59.00
12477;DHT22;6303;51.504;6.300;2022-10-16T09:30:37;25.40;58.90
12477;DHT22;6303;51.504;6.300;2022-10-16T09:33:05;25.40;59.00
12477;DHT22;6303;51.504;6.300;2022-10-16T09:35:36;25.40;58.90
12477;DHT22;6303;51.504;6.300;2022-10-16T09:38:04;25.50;58.90
12477;DHT22;6303;51.504;6.300;2022-10-16T09:40:33;25.50;58.70
12477;DHT22;6303;51.504;6.300;2022-10-16T09:43:16;25.50;58.60
12477;DHT22;6303;51.504;6.300;2022-10-16T09:45:55;25.60;58.50
12477;DHT22;6303;51.504;6.300;2022-10-16T09:48:25;25.60;58.40
12477;DHT22;6303;51.504;6.300;2022-10-16T09:50:56;25.70;58.50
12477;DHT22;6303;51.504;6.300;2022-10-16T09:53:24;25.70;59.10
12477;DHT22;6303;51.504;6.300;2022-10-16T09:55:53;25.60;58.40
12477;DHT22;6303;51.504;6.300;2022-10-16T09:58:21;25.70;58.40
12477;DHT22;6303;51.504;6.300;2022-10-16T10:00:51;25.70;58.90
12477;DHT22;6303;51.504;6.300;2022-10-16T10:03:35;25.70;58.10
12477;DHT22;6303;51.504;6.300;2022-10-16T10:06:14;25.80;58.20
12477;DHT22;6303;51.504;6.300;2022-10-16T10:08:53;25.80;58.10
12477;DHT22;6303;51.504;6.300;2022-10-16T10:11:39;25.80;58.00
12477;DHT22;6303;51.504;6.300;2022-10-16T10:14:16;25.80;57.80
12477;DHT22;6303;51.504;6.300;2022-10-16T10:16:44;25.80;57.80
12477;DHT22;6303;51.504;6.300;2022-10-16T10:19:15;25.80;57.80
12477;DHT22;6303;51.504;6.300;2022-10-16T10:21:43;25.80;57.80
12477;DHT22;6303;51.504;6.300;2022-10-16T10:24:11;25.90;57.70
12477;DHT22;6303;51.504;6.300;2022-10-16T10:26:44;25.90;57.70
12477;DHT22;6303;51.504;6.300;2022-10-16T10:29:19;26.00;57.90
12477;DHT22;6303;51.504;6.300;2022-10-16T10:31:55;26.00;57.60
12477;DHT22;6303;51.504;6.300;2022-10-16T10:34:40;26.00;57.60
12477;DHT22;6303;51.504;6.300;2022-10-16T10:37:19;26.00;57.50
12477;DHT22;6303;51.504;6.300;2022-10-16T10:39:53;26.00;57.50
12477;DHT22;6303;51.504;6.300;2022-10-16T10:42:26;26.00;57.40
12477;DHT22;6303;51.504;6.300;2022-10-16T10:45:17;26.10;57.30
12477;DHT22;6303;51.504;6.300;2022-10-16T10:47:55;26.10;57.10
12477;DHT22;6303;51.504;6.300;2022-10-16T10:50:30;26.10;56.80
12477;DHT22;6303;51.504;6.300;2022-10-16T10:53:09;26.20;56.90
12477;DHT22;6303;51.504;6.300;2022-10-16T10:55:40;26.20;56.80
12477;DHT22;6303;51.504;6.300;2022-10-16T10:58:36;26.20;56.90
12477;DHT22;6303;51.504;6.300;2022-10-16T11:01:09;26.20;56.80
12477;DHT22;6303;51.504;6.300;2022-10-16T11:04:01;26.20;56.80
12477;DHT22;6303;51.504;6.300;2022-10-16T11:06:34;26.20;57.00
12477;DHT22;6303;51.504;6.300;2022-10-16T11:09:09;26.10;57.00
12477;DHT22;6303;51.504;6.300;2022-10-16T11:11:41;26.10;57.10
12477;DHT22;6303;51.504;6.300;2022-10-16T11:14:15;26.00;57.10
12477;DHT22;6303;51.504;6.300;2022-10-16T11:16:49;25.90;57.20
12477;DHT22;6303;51.504;6.300;2022-10-16T11:19:29;25.90;57.30
12477;DHT22;6303;51.504;6.300;2022-10-16T11:22:03;25.80;57.50
12477;DHT22;6303;51.504;6.300;2022-10-16T11:24:39;25.70;57.50
12477;DHT22;6303;51.504;6.300;2022-10-16T11:27:11;25.70;57.70
12477;DHT22;6303;51.504;6.300;2022-10-16T11:29:46;25.60;57.70
12477;DHT22;6303;51.504;6.300;2022-10-16T11:32:21;25.70;57.90
12477;DHT22;6303;51.504;6.300;2022-10-16T11:34:53;25.80;58.20
12477;DHT22;6303;51.504;6.300;2022-10-16T11:37:29;25.80;58.00
12477;DHT22;6303;51.504;6.300;2022-10-16T11:40:03;25.80;58.50
12477;DHT22;6303;51.504;6.300;2022-10-16T11:42:37;25.80;59.90
12477;DHT22;6303;51.504;6.300;2022-10-16T11:45:15;25.80;59.00
12477;DHT22;6303;51.504;6.300;2022-10-16T11:47:57;25.70;58.90
12477;DHT22;6303;51.504;6.300;2022-10-16T11:50:29;25.70;59.00
12477;DHT22;6303;51.504;6.300;2022-10-16T11:53:03;25.70;59.00
12477;DHT22;6303;51.504;6.300;2022-10-16T11:55:33;25.70;59.00
12477;DHT22;6303;51.504;6.300;2022-10-16T11:58:04;25.80;58.90
12477;DHT22;6303;51.504;6.300;2022-10-16T12:00:38;25.90;58.80
12477;DHT22;6303;51.504;6.300;2022-10-16T12:03:14;25.90;58.70
12477;DHT22;6303;51.504;6.300;2022-10-16T12:05:55;25.90;58.70
12477;DHT22;6303;51.504;6.300;2022-10-16T12:08:26;26.00;59.00
12477;DHT22;6303;51.504;6.300;2022-10-16T12:11:05;26.00;58.70
12477;DHT22;6303;51.504;6.300;2022-10-16T12:13:35;26.00;58.70
12477;DHT22;6303;51.504;6.300;2022-10-16T12:16:21;26.00;58.80
12477;DHT22;6303;51.504;6.300;2022-10-16T12:18:49;25.80;59.00
12477;DHT22;6303;51.504;6.300;2022-10-16T12:21:17;25.80;59.10
12477;DHT22;6303;51.504;6.300;2022-10-16T12:23:51;25.80;59.30
12477;DHT22;6303;51.504;6.300;2022-10-16T12:26:30;25.80;59.30
12477;DHT22;6303;51.504;6.300;2022-10-16T12:29:13;25.80;59.40
12477;DHT22;6303;51.504;6.300;2022-10-16T12:31:45;25.90;59.40
12477;DHT22;6303;51.504;6.300;2022-10-16T12:34:21;25.90;59.40
12477;DHT22;6303;51.504;6.300;2022-10-16T12:36:49;25.90;59.30
12477;DHT22;6303;51.504;6.300;2022-10-16T12:39:22;25.90;59.30
12477;DHT22;6303;51.504;6.300;2022-10-16T12:42:01;25.80;59.10
12477;DHT22;6303;51.504;6.300;2022-10-16T12:44:32;25.80;59.20
12477;DHT22;6303;51.504;6.300;2022-10-16T12:47:00;25.80;59.20
12477;DHT22;6303;51.504;6.300;2022-10-16T12:49:35;25.80;59.40
12477;DHT22;6303;51.504;6.300;2022-10-16T12:52:03;25.80;59.40
12477;DHT22;6303;51.504;6.300;2022-10-16T12:54:36;25.70;59.30
12477;DHT22;6303;51.504;6.300;2022-10-16T12:57:14;25.70;59.30
12477;DHT22;6303;51.504;6.300;2022-10-16T12:59:52;25.70;59.60
12477;DHT22;6303;51.504;6.300;2022-10-16T13:02:55;25.70;59.80
12477;DHT22;6303;51.504;6.300;2022-10-16T13:05:32;25.60;59.80
12477;DHT22;6303;51.504;6.300;2022-10-16T13:08:18;25.60;59.70
12477;DHT22;6303;51.504;6.300;2022-10-16T13:10:58;25.60;59.90
12477;DHT22;6303;51.504;6.300;2022-10-16T13:13:59;25.50;60.10
12477;DHT22;6303;51.504;6.300;2022-10-16T13:16:40;25.50;60.10
12477;DHT22;6303;51.504;6.300;2022-10-16T13:19:16;25.50;60.10
12477;DHT22;6303;51.504;6.300;2022-10-16T13:21:49;25.40;60.10
12477;DHT22;6303;51.504;6.300;2022-10-16T13:24:30;25.40;60.30
12477;DHT22;6303;51.504;6.300;2022-10-16T13:27:09;25.30;60.30
12477;DHT22;6303;51.504;6.300;2022-10-16T13:29:38;25.30;60.20
12477;DHT22;6303;51.504;6.300;2022-10-16T13:32:09;25.30;60.20
12477;DHT22;6303;51.504;6.300;2022-10-16T13:34:44;25.30;60.20
12477;DHT22;6303;51.504;6.300;2022-10-16T13:37:17;25.20;60.30
12477;DHT22;6303;51.504;6.300;2022-10-16T13:39:45;25.20;60.70
12477;DHT22;6303;51.504;6.300;2022-10-16T13:42:16;25.20;60.70
12477;DHT22;6303;51.504;6.300;2022-10-16T13:44:48;25.20;60.70
12477;DHT22;6303;51.504;6.300;2022-10-16T13:47:18;25.20;60.70
12477;DHT22;6303;51.504;6.300;2022-10-16T13:49:45;25.20;60.80
12477;DHT22;6303;51.504;6.300;2022-10-16T13:52:18;25.10;60.80
12477;DHT22;6303;51.504;6.300;2022-10-16T13:54:45;25.10;60.80
12477;DHT22;6303;51.504;6.300;2022-10-16T13:57:15;25.10;60.80
12477;DHT22;6303;51.504;6.300;2022-10-16T13:59:43;25.00;60.60
12477;DHT22;6303;51.504;6.300;2022-10-16T14:02:20;25.00;60.90
12477;DHT22;6303;51.504;6.300;2022-10-16T14:04:49;25.00;61.00
12477;DHT22;6303;51.504;6.300;2022-10-16T14:07:22;25.00;61.00
12477;DHT22;6303;51.504;6.300;2022-10-16T14:09:50;25.00;61.00
12477;DHT22;6303;51.504;6.300;2022-10-16T14:12:20;25.00;61.00
12477;DHT22;6303;51.504;6.300;2022-10-16T14:14:49;25.00;61.10
12477;DHT22;6303;51.504;6.300;2022-10-16T14:17:20;25.00;61.20
12477;DHT22;6303;51.504;6.300;2022-10-16T14:19:50;25.00;61.20
12477;DHT22;6303;51.504;6.300;2022-10-16T14:22:27;25.00;61.20
12477;DHT22;6303;51.504;6.300;2022-10-16T14:24:55;24.90;61.20
12477;DHT22;6303;51.504;6.300;2022-10-16T14:27:28;24.90;61.20
12477;DHT22;6303;51.504;6.300;2022-10-16T14:30:15;24.90;61.30
12477;DHT22;6303;51.504;6.300;2022-10-16T14:32:53;24.90;61.40
12477;DHT22;6303;51.504;6.300;2022-10-16T14:35:26;24.90;61.40
12477;DHT22;6303;51.504;6.300;2022-10-16T14:37:54;24.80;61.40
12477;DHT22;6303;51.504;6.300;2022-10-16T14:40:24;24.80;61.50
12477;DHT22;6303;51.504;6.300;2022-10-16T14:42:53;24.80;61.50
12477;DHT22;6303;51.504;6.300;2022-10-16T14:45:22;24.80;61.50
12477;DHT22;6303;51.504;6.300;2022-10-16T14:47:52;24.80;61.60
12477;DHT22;6303;51.504;6.300;2022-10-16T14:50:20;24.80;61.50
12477;DHT22;6303;51.504;6.300;2022-10-16T14:52:47;24.80;61.60
12477;DHT22;6303;51.504;6.300;2022-10-16T14:55:15;24.80;61.70
12477;DHT22;6303;51.504;6.300;2022-10-16T14:57:43;24.80;61.60
12477;DHT22;6303;51.504;6.300;2022-10-16T15:00:17;23.40;60.80
12477;DHT22;6303;51.504;6.300;2022-10-16T15:02:46;24.80;61.70
12477;DHT22;6303;51.504;6.300;2022-10-16T15:05:16;24.70;61.70
12477;DHT22;6303;51.504;6.300;2022-10-16T15:07:44;24.70;61.70
12477;DHT22;6303;51.504;6.300;2022-10-16T15:10:13;24.70;61.80
12477;DHT22;6303;51.504;6.300;2022-10-16T15:12:40;24.70;61.80
12477;DHT22;6303;51.504;6.300;2022-10-16T15:15:34;24.70;61.80
12477;DHT22;6303;51.504;6.300;2022-10-16T15:18:02;24.70;61.80
12477;DHT22;6303;51.504;6.300;2022-10-16T15:20:31;24.70;61.80
12477;DHT22;6303;51.504;6.300;2022-10-16T15:23:00;24.70;61.80
12477;DHT22;6303;51.504;6.300;2022-10-16T15:25:32;24.70;61.80
12477;DHT22;6303;51.504;6.300;2022-10-16T15:28:00;24.70;61.90
12477;DHT22;6303;51.504;6.300;2022-10-16T15:30:29;22.20;60.40
12477;DHT22;6303;51.504;6.300;2022-10-16T15:32:57;24.60;61.90
12477;DHT22;6303;51.504;6.300;2022-10-16T15:35:24;24.60;61.90
12477;DHT22;6303;51.504;6.300;2022-10-16T15:37:51;24.60;61.90
12477;DHT22;6303;51.504;6.300;2022-10-16T15:40:20;24.60;61.90
12477;DHT22;6303;51.504;6.300;2022-10-16T15:42:47;24.60;61.90
12477;DHT22;6303;51.504;6.300;2022-10-16T15:45:14;24.60;61.90
12477;DHT22;6303;51.504;6.300;2022-10-16T15:47:43;24.60;62.00
12477;DHT22;6303;51.504;6.300;2022-10-16T15:50:11;24.60;62.00
12477;DHT22;6303;51.504;6.300;2022-10-16T15:52:38;24.60;62.00
12477;DHT22;6303;51.504;6.300;2022-10-16T15:55:07;24.60;62.00
12477;DHT22;6303;51.504;6.300;2022-10-16T15:57:34;24.60;62.00
12477;DHT22;6303;51.504;6.300;2022-10-16T16:00:05;24.60;62.00
12477;DHT22;6303;51.504;6.300;2022-10-16T16:02:37;24.60;62.00
12477;DHT22;6303;51.504;6.300;2022-10-16T16:05:07;24.60;62.00
12477;DHT22;6303;51.504;6.300;2022-10-16T16:07:35;23.30;61.30